Terminal Aerodrome Forecast
Issued by NWS Sterling, VA

Home | Current Version | Previous Version | Text Only | Print | Product List | Glossary On
Versions: 1 2 3 4 5 6 7 8 9 10 11 12 13 14 15 16 17 18
000
FTUS41 KLWX 261200 AAA
TAFCHO
TAF AMD
KCHO 261259Z 2613/2712 04009KT 3SM -RA BR OVC003
     FM261800 03006KT 5SM -RASN OVC005
     FM262300 01007KT 6SM -RASN OVC008
     FM270200 36007KT 6SM -SN OVC008
     FM270900 34006KT P6SM OVC050=

USA.gov is the U.S. government's official web portal to all federal, state and local government web resources and services.